Terminal Aerodrome Forecast
Issued by NWS North Platte, NE

Home | Current Version | Previous Version | Graphics & Text | Print | Product List | Glossary On
Versions: 1 2 3 4 5 6 7 8 9 10 11 12 13 14 15 16 17 18 19 20 21 22 23 24 25 26
872
FTUS43 KLBF 280847 AAA
TAFVTN
TAF AMD
KVTN 280847Z 2809/2906 32012KT 1 1/2SM BR OVC003
     FM281300 32010KT P6SM OVC007
     FM281500 34009KT P6SM OVC015
     FM282000 02009KT P6SM BKN020
     FM290200 04007KT P6SM OVC012=

USA.gov is the U.S. government's official web portal to all federal, state and local government web resources and services.